createdAt,value
2022-11-16T00:00:10.642Z,8.85
2022-11-16T00:02:38.955Z,8.43
2022-11-16T00:05:09.444Z,9.45
2022-11-16T00:07:37.709Z,7.88
2022-11-16T00:10:06.710Z,8.63
2022-11-16T00:12:34.847Z,9.25
2022-11-16T00:15:02.932Z,7.47
2022-11-16T00:17:31.260Z,7.95
2022-11-16T00:19:59.453Z,8.45
2022-11-16T00:22:29.127Z,7.55
2022-11-16T00:24:57.296Z,8.00
2022-11-16T00:27:25.457Z,7.18
2022-11-16T00:29:53.668Z,7.65
2022-11-16T00:32:21.876Z,10.02
2022-11-16T00:34:50.059Z,7.97
2022-11-16T00:37:18.251Z,8.13
2022-11-16T00:39:47.688Z,8.60
2022-11-16T00:42:15.829Z,8.38
2022-11-16T00:44:43.983Z,7.63
2022-11-16T00:47:12.201Z,8.23
2022-11-16T00:49:40.280Z,9.07
2022-11-16T00:52:08.606Z,7.82
2022-11-16T00:54:36.909Z,9.20
2022-11-16T00:57:06.441Z,7.40
2022-11-16T00:59:34.508Z,9.65
2022-11-16T01:02:02.810Z,8.35
2022-11-16T01:04:30.980Z,9.32
2022-11-16T01:06:59.227Z,7.72
2022-11-16T01:09:27.362Z,8.25
2022-11-16T01:12:10.689Z,8.23
2022-11-16T01:14:42.498Z,7.13
2022-11-16T01:17:10.877Z,9.05
2022-11-16T01:19:39.177Z,7.97
2022-11-16T01:22:07.520Z,7.30
2022-11-16T01:24:35.698Z,7.93
2022-11-16T01:27:04.028Z,7.63
2022-11-16T01:29:32.610Z,8.10
2022-11-16T01:32:02.255Z,7.38
2022-11-16T01:34:30.597Z,8.60
2022-11-16T01:36:58.788Z,6.47
2022-11-16T01:39:27.065Z,7.10
2022-11-16T01:41:55.342Z,7.32
2022-11-16T01:45:06.315Z,11.75
2022-11-16T01:47:36.152Z,8.57
2022-11-16T01:50:09.481Z,6.60
2022-11-16T01:52:41.426Z,8.38
2022-11-16T01:55:10.703Z,7.85
2022-11-16T01:57:43.010Z,8.15
2022-11-16T02:00:13.462Z,8.95
2022-11-16T02:02:43.069Z,8.73
2022-11-16T02:05:13.259Z,9.48
2022-11-16T02:08:20.581Z,7.37
2022-11-16T02:11:02.760Z,7.93
2022-11-16T02:13:39.286Z,8.15
2022-11-16T02:16:17.523Z,8.23
2022-11-16T02:18:58.654Z,7.72
2022-11-16T02:24:38.760Z,7.93
2022-11-16T02:27:33.099Z,8.55
2022-11-16T02:30:03.998Z,7.88
2022-11-16T02:32:35.424Z,8.18
2022-11-16T02:35:08.750Z,7.53
2022-11-16T02:37:45.005Z,7.43
2022-11-16T02:40:16.013Z,8.82
2022-11-16T02:45:19.692Z,7.65
2022-11-16T02:47:51.239Z,7.35
2022-11-16T02:50:23.339Z,7.45
2022-11-16T02:52:51.625Z,6.88
2022-11-16T02:55:19.992Z,8.60
2022-11-16T02:57:52.689Z,7.45
2022-11-16T03:00:25.456Z,6.75
2022-11-16T03:03:07.646Z,7.90
2022-11-16T03:05:39.677Z,7.47
2022-11-16T03:08:19.350Z,8.40
2022-11-16T03:11:10.134Z,8.65
2022-11-16T03:13:40.449Z,7.10
2022-11-16T03:16:14.710Z,7.43
2022-11-16T03:18:45.714Z,6.47
2022-11-16T03:23:46.829Z,7.10
2022-11-16T03:26:20.037Z,7.30
2022-11-16T03:28:53.416Z,7.95
2022-11-16T03:31:29.155Z,7.03
2022-11-16T03:34:01.757Z,6.60
2022-11-16T03:36:33.389Z,7.47
2022-11-16T03:39:05.525Z,7.22
2022-11-16T03:41:36.620Z,7.40
2022-11-16T03:44:05.168Z,7.75
2022-11-16T03:46:34.710Z,6.53
2022-11-16T03:49:03.156Z,7.25
2022-11-16T03:51:31.391Z,7.78
2022-11-16T03:53:59.515Z,7.20
2022-11-16T03:56:27.795Z,6.10
2022-11-16T03:58:55.929Z,7.50
2022-11-16T04:01:24.339Z,7.45
2022-11-16T04:03:53.912Z,6.53
2022-11-16T04:06:39.545Z,7.72
2022-11-16T04:09:25.057Z,6.00
2022-11-16T04:12:10.817Z,5.78
2022-11-16T04:14:56.889Z,7.50
2022-11-16T04:17:43.571Z,6.95
2022-11-16T04:20:32.962Z,6.63
2022-11-16T04:23:23.106Z,6.97
2022-11-16T04:25:52.940Z,7.35
2022-11-16T04:28:23.561Z,6.78
2022-11-16T04:31:11.377Z,7.50
2022-11-16T04:33:57.467Z,7.72
2022-11-16T04:36:52.687Z,6.63
2022-11-16T04:39:20.821Z,6.25
2022-11-16T04:42:06.516Z,6.88
2022-11-16T04:44:50.536Z,6.97
2022-11-16T04:47:18.768Z,5.95
2022-11-16T04:49:46.910Z,6.72
2022-11-16T04:52:16.689Z,6.25
2022-11-16T04:54:44.880Z,7.07
2022-11-16T04:57:13.044Z,6.38
2022-11-16T04:59:41.358Z,5.88
2022-11-16T05:02:09.587Z,5.70
2022-11-16T05:04:38.179Z,6.65
2022-11-16T05:07:10.888Z,6.03
2022-11-16T05:09:43.193Z,7.22
2022-11-16T05:12:14.813Z,5.95
2022-11-16T05:14:43.604Z,6.90
2022-11-16T05:17:12.607Z,7.10
2022-11-16T05:19:58.675Z,6.28
2022-11-16T05:22:27.391Z,6.00
2022-11-16T05:24:56.902Z,6.75
2022-11-16T05:27:26.421Z,6.68
2022-11-16T05:29:55.123Z,5.55
2022-11-16T05:32:25.267Z,6.30
2022-11-16T05:34:53.624Z,6.67
2022-11-16T05:37:23.228Z,5.88
2022-11-16T05:39:51.357Z,6.70
2022-11-16T05:42:20.965Z,5.93
2022-11-16T05:44:49.123Z,6.43
2022-11-16T05:47:17.423Z,11.65
2022-11-16T05:49:45.556Z,6.55
2022-11-16T05:52:13.637Z,6.68
2022-11-16T05:54:41.758Z,6.78
2022-11-16T05:57:09.836Z,9.38
2022-11-16T05:59:39.510Z,8.65
2022-11-16T06:02:07.704Z,8.27
2022-11-16T06:04:35.827Z,8.27
2022-11-16T06:07:04.313Z,8.70
2022-11-16T06:09:32.590Z,7.43
2022-11-16T06:12:00.790Z,9.27
2022-11-16T06:14:28.974Z,8.32
2022-11-16T06:16:58.547Z,8.63
2022-11-16T06:19:32.068Z,9.85
2022-11-16T06:22:00.631Z,8.90
2022-11-16T06:24:28.815Z,10.30
2022-11-16T06:26:56.927Z,10.30
2022-11-16T06:29:25.160Z,8.70
2022-11-16T06:31:53.339Z,8.32
2022-11-16T06:34:22.843Z,11.48
2022-11-16T06:36:50.926Z,9.75
2022-11-16T06:39:19.084Z,9.43
2022-11-16T06:41:47.349Z,7.38
2022-11-16T06:44:15.566Z,8.60
2022-11-16T06:46:43.793Z,10.48
2022-11-16T06:49:11.974Z,9.82
2022-11-16T06:51:41.391Z,7.68
2022-11-16T06:54:09.694Z,8.00
2022-11-16T06:56:37.791Z,7.93
2022-11-16T06:59:05.976Z,9.20
2022-11-16T07:01:34.462Z,8.02
2022-11-16T07:04:02.658Z,7.75
2022-11-16T07:06:31.384Z,7.38
2022-11-16T07:09:00.892Z,8.52
2022-11-16T07:11:29.108Z,7.25
2022-11-16T07:13:57.306Z,8.80
2022-11-16T07:16:25.404Z,7.25
2022-11-16T07:18:53.601Z,6.90
2022-11-16T07:21:21.760Z,7.57
2022-11-16T07:23:49.878Z,7.95
2022-11-16T07:26:19.485Z,8.35
2022-11-16T07:28:48.673Z,7.22
2022-11-16T07:31:17.666Z,7.30
2022-11-16T07:33:45.749Z,7.45
2022-11-16T07:36:15.839Z,6.78
2022-11-16T07:38:44.001Z,6.93
2022-11-16T07:41:13.848Z,6.72
2022-11-16T07:43:47.192Z,8.60
2022-11-16T07:49:11.278Z,8.30
2022-11-16T07:51:39.632Z,9.00
2022-11-16T07:54:08.299Z,7.35
2022-11-16T07:56:36.443Z,7.35
2022-11-16T07:59:06.744Z,6.90
2022-11-16T08:01:35.986Z,7.33
2022-11-16T08:04:04.205Z,6.85
2022-11-16T08:06:33.267Z,6.82
2022-11-16T08:09:01.356Z,8.30
2022-11-16T08:11:29.456Z,6.78
2022-11-16T08:13:58.164Z,6.78
2022-11-16T08:16:27.640Z,7.53
2022-11-16T08:18:55.877Z,6.93
2022-11-16T08:21:24.035Z,7.18
2022-11-16T08:23:57.832Z,6.95
2022-11-16T08:26:27.172Z,6.55
2022-11-16T08:28:57.154Z,6.80
2022-11-16T08:31:28.546Z,6.10
2022-11-16T08:33:57.107Z,10.05
2022-11-16T08:36:25.382Z,6.20
2022-11-16T08:38:54.294Z,6.30
2022-11-16T08:41:23.215Z,6.78
2022-11-16T08:43:53.353Z,8.07
2022-11-16T08:46:21.967Z,7.37
2022-11-16T08:48:55.855Z,7.70
2022-11-16T08:51:24.316Z,7.72
2022-11-16T08:53:57.035Z,6.22
2022-11-16T08:56:27.381Z,7.05
2022-11-16T08:58:58.931Z,7.03
2022-11-16T09:01:29.192Z,6.15
2022-11-16T09:03:58.914Z,6.47
2022-11-16T09:06:28.589Z,5.97
2022-11-16T09:08:57.557Z,6.22
2022-11-16T09:11:26.571Z,6.15
2022-11-16T09:13:55.715Z,7.45
2022-11-16T09:16:24.975Z,6.72
2022-11-16T09:18:53.211Z,6.03
2022-11-16T09:21:24.545Z,6.72
2022-11-16T09:23:54.391Z,6.35
2022-11-16T09:26:23.608Z,6.25
2022-11-16T09:28:56.800Z,6.53
2022-11-16T09:31:27.401Z,6.50
2022-11-16T09:33:58.176Z,6.60
2022-11-16T09:36:28.873Z,5.63
2022-11-16T09:41:56.635Z,5.80
2022-11-16T09:44:54.720Z,5.55
2022-11-16T09:47:25.956Z,6.65
2022-11-16T09:50:01.622Z,6.22
2022-11-16T09:52:37.811Z,6.13
2022-11-16T09:55:24.054Z,5.22
2022-11-16T09:57:54.856Z,6.28
2022-11-16T10:00:24.835Z,7.18
2022-11-16T10:03:03.768Z,5.43
2022-11-16T10:05:37.670Z,6.18
2022-11-16T10:08:14.380Z,6.28
2022-11-16T10:10:50.503Z,5.70
2022-11-16T10:13:35.295Z,6.53
2022-11-16T10:16:12.614Z,6.22
2022-11-16T10:18:52.359Z,6.10
2022-11-16T10:21:33.246Z,6.13
2022-11-16T10:24:21.837Z,5.30
2022-11-16T10:26:59.275Z,6.82
2022-11-16T10:29:40.376Z,6.85
2022-11-16T10:32:16.529Z,5.80
2022-11-16T10:34:51.920Z,5.57
2022-11-16T10:37:21.333Z,5.47
2022-11-16T10:39:54.169Z,5.38
2022-11-16T10:42:29.801Z,5.13
2022-11-16T10:45:03.741Z,6.45
2022-11-16T10:47:41.809Z,5.78
2022-11-16T10:50:32.958Z,5.57
2022-11-16T10:55:30.762Z,5.65
2022-11-16T10:58:01.225Z,5.82
2022-11-16T11:00:38.111Z,5.32
2022-11-16T11:03:06.304Z,5.90
2022-11-16T11:05:36.177Z,5.95
2022-11-16T11:08:06.077Z,6.03
2022-11-16T11:10:37.312Z,5.50
2022-11-16T11:13:26.300Z,5.45
2022-11-16T11:16:16.226Z,6.85
2022-11-16T11:18:44.408Z,6.10
2022-11-16T11:21:19.274Z,6.35
2022-11-16T11:23:50.858Z,5.72
2022-11-16T11:26:36.882Z,5.10
2022-11-16T11:29:16.837Z,6.25
2022-11-16T11:31:47.294Z,5.45
2022-11-16T11:34:18.804Z,6.13
2022-11-16T11:36:50.423Z,6.03
2022-11-16T11:39:33.779Z,5.28
2022-11-16T11:42:06.703Z,6.47
2022-11-16T11:44:43.710Z,5.20
2022-11-16T11:50:33.313Z,5.55
2022-11-16T11:53:07.046Z,5.45
2022-11-16T11:55:35.813Z,4.97
2022-11-16T11:58:07.230Z,4.95
2022-11-16T12:00:47.079Z,5.15
2022-11-16T12:03:54.138Z,4.90
2022-11-16T12:06:32.575Z,4.95
2022-11-16T12:09:23.908Z,5.07
2022-11-16T12:12:08.177Z,5.47
2022-11-16T12:15:08.696Z,5.65
2022-11-16T12:17:46.233Z,5.38
2022-11-16T12:20:26.177Z,5.65
2022-11-16T12:23:19.358Z,4.60
2022-11-16T12:25:52.995Z,5.78
2022-11-16T12:28:33.762Z,5.70
2022-11-16T12:31:20.624Z,5.07
2022-11-16T12:33:55.322Z,5.28
2022-11-16T12:36:34.672Z,6.10
2022-11-16T12:39:14.294Z,4.88
2022-11-16T12:42:11.111Z,4.72
2022-11-16T12:44:56.902Z,7.07
2022-11-16T12:47:34.540Z,4.95
2022-11-16T12:50:17.118Z,6.07
2022-11-16T12:52:59.468Z,4.90
2022-11-16T12:55:33.614Z,4.70
2022-11-16T12:58:13.654Z,4.60
2022-11-16T13:00:54.357Z,5.78
2022-11-16T13:03:30.547Z,5.45
2022-11-16T13:06:02.871Z,5.07
2022-11-16T13:08:48.411Z,5.38
2022-11-16T13:11:21.966Z,5.20
2022-11-16T13:13:53.961Z,5.40
2022-11-16T13:16:23.799Z,4.30
2022-11-16T13:18:55.074Z,5.45
2022-11-16T13:21:38.907Z,4.30
2022-11-16T13:24:25.464Z,5.38
2022-11-16T13:27:05.469Z,4.82
2022-11-16T13:29:38.867Z,4.43
2022-11-16T13:32:12.296Z,5.53
2022-11-16T13:34:42.623Z,5.18
2022-11-16T13:37:45.051Z,5.37
2022-11-16T13:40:23.418Z,4.68
2022-11-16T13:43:15.407Z,4.68
2022-11-16T13:45:52.342Z,4.70
2022-11-16T13:48:22.662Z,5.00
2022-11-16T13:50:56.637Z,6.07
2022-11-16T13:56:18.435Z,4.45
2022-11-16T13:58:51.598Z,5.65
2022-11-16T14:01:20.565Z,4.28
2022-11-16T14:03:51.612Z,5.25
2022-11-16T14:06:59.697Z,4.00
2022-11-16T14:09:48.243Z,4.53
2022-11-16T14:12:56.312Z,4.55
2022-11-16T14:15:28.403Z,4.57
2022-11-16T14:18:00.056Z,5.13
2022-11-16T14:21:00.938Z,5.35
2022-11-16T14:23:47.555Z,4.78
2022-11-16T14:26:23.378Z,4.93
2022-11-16T14:29:16.721Z,5.20
2022-11-16T14:31:52.263Z,5.05
2022-11-16T14:34:23.352Z,4.45
2022-11-16T14:36:51.705Z,4.43
2022-11-16T14:39:32.928Z,6.68
2022-11-16T14:42:03.934Z,4.35
2022-11-16T14:47:03.623Z,4.65
2022-11-16T14:49:34.634Z,4.47
2022-11-16T14:54:39.313Z,5.10
2022-11-16T14:57:12.818Z,5.10
2022-11-16T14:59:41.638Z,4.68
2022-11-16T15:02:20.197Z,4.43
2022-11-16T15:04:49.081Z,4.18
2022-11-16T15:07:18.782Z,4.03
2022-11-16T15:09:51.871Z,4.75
2022-11-16T15:12:40.960Z,3.92
2022-11-16T15:15:14.774Z,4.07
2022-11-16T15:17:45.507Z,3.50
2022-11-16T15:20:20.325Z,4.72
2022-11-16T15:22:51.730Z,4.50
2022-11-16T15:25:31.176Z,5.60
2022-11-16T15:28:01.024Z,4.22
2022-11-16T15:30:31.233Z,4.30
2022-11-16T15:32:59.698Z,4.17
2022-11-16T15:35:31.250Z,4.85
2022-11-16T15:38:07.347Z,4.47
2022-11-16T15:40:37.030Z,4.32
2022-11-16T15:43:07.139Z,4.82
2022-11-16T15:45:36.056Z,5.13
2022-11-16T15:48:05.152Z,5.22
2022-11-16T15:50:33.445Z,5.22
2022-11-16T15:53:01.583Z,3.92
2022-11-16T15:55:38.731Z,4.72
2022-11-16T15:58:22.483Z,4.65
2022-11-16T16:00:50.911Z,4.90
2022-11-16T16:03:23.054Z,3.95
2022-11-16T16:05:51.996Z,5.15
2022-11-16T16:08:30.064Z,4.38
2022-11-16T16:11:11.724Z,4.65
2022-11-16T16:13:42.721Z,3.97
2022-11-16T16:18:49.936Z,5.18
2022-11-16T16:21:19.012Z,4.18
2022-11-16T16:23:48.232Z,4.93
2022-11-16T16:26:18.370Z,4.25
2022-11-16T16:28:46.810Z,4.37
2022-11-16T16:31:15.636Z,4.43
2022-11-16T16:33:43.861Z,4.20
2022-11-16T16:36:13.682Z,3.88
2022-11-16T16:38:41.999Z,4.20
2022-11-16T16:41:23.984Z,4.35
2022-11-16T16:43:52.925Z,4.93
2022-11-16T16:46:21.775Z,4.88
2022-11-16T16:48:49.989Z,4.28
2022-11-16T16:51:18.235Z,4.65
2022-11-16T16:53:46.357Z,4.68
2022-11-16T16:56:16.236Z,4.03
2022-11-16T16:58:45.898Z,4.78
2022-11-16T17:01:14.422Z,3.47
2022-11-16T17:03:42.660Z,3.58
2022-11-16T17:06:10.857Z,4.03
2022-11-16T17:08:39.383Z,3.42
2022-11-16T17:11:07.617Z,4.40
2022-11-16T17:13:36.332Z,3.88
2022-11-16T17:16:07.603Z,4.25
2022-11-16T17:18:35.766Z,3.67
2022-11-16T17:21:07.444Z,4.10
2022-11-16T17:23:36.753Z,5.47
2022-11-16T17:26:06.146Z,4.18
2022-11-16T17:28:34.686Z,6.93
2022-11-16T17:31:03.498Z,6.72
2022-11-16T17:33:35.986Z,6.55
2022-11-16T17:36:04.738Z,7.47
2022-11-16T17:38:32.979Z,11.30
2022-11-16T17:41:05.686Z,6.07
2022-11-16T17:43:34.330Z,5.95
2022-11-16T17:46:05.139Z,6.82
2022-11-16T17:48:33.497Z,6.97
2022-11-16T17:51:03.474Z,6.43
2022-11-16T17:53:33.013Z,5.93
2022-11-16T17:56:01.319Z,4.80
2022-11-16T17:58:29.743Z,5.25
2022-11-16T18:00:58.296Z,6.43
2022-11-16T18:03:28.368Z,10.30
2022-11-16T18:06:04.936Z,7.55
2022-11-16T18:08:33.736Z,7.20
2022-11-16T18:11:06.350Z,6.70
2022-11-16T18:13:35.142Z,8.45
2022-11-16T18:16:05.310Z,8.25
2022-11-16T18:18:34.260Z,6.55
2022-11-16T18:21:03.800Z,9.68
2022-11-16T18:23:32.474Z,6.40
2022-11-16T18:26:03.101Z,5.88
2022-11-16T18:28:31.314Z,7.97
2022-11-16T18:31:04.461Z,9.93
2022-11-16T18:33:33.174Z,8.57
2022-11-16T18:36:03.143Z,16.83
2022-11-16T18:38:31.433Z,10.93
2022-11-16T18:41:07.493Z,8.35
2022-11-16T18:43:36.437Z,10.50
2022-11-16T18:46:05.299Z,9.27
2022-11-16T18:48:33.550Z,11.63
2022-11-16T18:51:04.704Z,7.45
2022-11-16T18:53:34.661Z,7.15
2022-11-16T18:56:03.306Z,7.23
2022-11-16T19:01:20.962Z,5.70
2022-11-16T19:03:49.330Z,6.68
2022-11-16T19:06:19.493Z,6.18
2022-11-16T19:08:54.983Z,9.17
2022-11-16T19:11:24.730Z,5.95
2022-11-16T19:13:54.814Z,8.18
2022-11-16T19:16:23.747Z,6.37
2022-11-16T19:18:51.855Z,7.07
2022-11-16T19:21:22.048Z,6.18
2022-11-16T19:23:52.083Z,8.20
2022-11-16T19:26:22.449Z,6.60
2022-11-16T19:28:51.759Z,7.20
2022-11-16T19:31:22.299Z,5.45
2022-11-16T19:33:55.068Z,6.50
2022-11-16T19:36:25.222Z,6.38
2022-11-16T19:38:53.732Z,5.57
2022-11-16T19:41:22.802Z,7.78
2022-11-16T19:43:52.732Z,6.18
2022-11-16T19:46:21.943Z,8.50
2022-11-16T19:48:50.399Z,6.18
2022-11-16T19:51:21.222Z,7.13
2022-11-16T19:53:51.216Z,6.28
2022-11-16T19:56:20.591Z,8.77
2022-11-16T19:58:49.352Z,5.93
2022-11-16T20:01:19.319Z,5.05
2022-11-16T20:03:48.794Z,6.00
2022-11-16T20:06:18.667Z,5.80
2022-11-16T20:08:50.571Z,5.53
2022-11-16T20:11:20.685Z,5.43
2022-11-16T20:13:49.177Z,4.93
2022-11-16T20:16:18.656Z,7.30
2022-11-16T20:18:47.756Z,5.78
2022-11-16T20:21:20.332Z,5.32
2022-11-16T20:23:50.529Z,8.55
2022-11-16T20:26:20.039Z,6.50
2022-11-16T20:28:50.967Z,6.07
2022-11-16T20:31:20.934Z,7.07
2022-11-16T20:33:51.898Z,4.60
2022-11-16T20:38:48.369Z,7.55
2022-11-16T20:41:19.215Z,6.28
2022-11-16T20:43:48.664Z,8.00
2022-11-16T20:46:18.048Z,6.53
2022-11-16T20:48:46.513Z,6.55
2022-11-16T20:51:17.077Z,6.03
2022-11-16T20:53:45.843Z,6.72
2022-11-16T20:56:14.546Z,6.00
2022-11-16T20:58:44.349Z,4.75
2022-11-16T21:01:15.872Z,4.30
2022-11-16T21:03:45.090Z,5.70
2022-11-16T21:06:13.772Z,6.13
2022-11-16T21:08:42.807Z,4.97
2022-11-16T21:11:12.327Z,4.25
2022-11-16T21:13:58.048Z,4.47
2022-11-16T21:16:27.709Z,6.05
2022-11-16T21:18:56.466Z,4.57
2022-11-16T21:21:25.536Z,4.60
2022-11-16T21:23:54.928Z,6.05
2022-11-16T21:26:25.697Z,3.80
2022-11-16T21:28:54.216Z,4.78
2022-11-16T21:31:25.529Z,5.13
2022-11-16T21:33:55.691Z,4.28
2022-11-16T21:36:25.272Z,6.40
2022-11-16T21:38:54.433Z,5.90
2022-11-16T21:41:23.928Z,6.55
2022-11-16T21:43:52.261Z,4.80
2022-11-16T21:46:22.167Z,4.07
2022-11-16T21:48:51.387Z,5.53
2022-11-16T21:51:24.829Z,4.18
2022-11-16T21:53:53.159Z,3.90
2022-11-16T21:56:22.817Z,4.90
2022-11-16T21:58:52.744Z,5.10
2022-11-16T22:01:21.674Z,4.45
2022-11-16T22:04:10.533Z,6.07
2022-11-16T22:07:00.126Z,4.00
2022-11-16T22:09:28.338Z,6.40
2022-11-16T22:14:38.338Z,5.40
2022-11-16T22:17:08.323Z,4.03
2022-11-16T22:19:36.422Z,3.92
2022-11-16T22:22:05.917Z,6.70
2022-11-16T22:24:34.218Z,4.55
2022-11-16T22:27:02.407Z,5.47
2022-11-16T22:29:31.749Z,4.20
2022-11-16T22:31:59.818Z,3.40
2022-11-16T22:34:27.953Z,4.80
2022-11-16T22:36:55.984Z,4.30
2022-11-16T22:39:25.439Z,5.05
2022-11-16T22:41:54.106Z,4.38
2022-11-16T22:44:22.189Z,4.57
2022-11-16T22:46:52.279Z,4.88
2022-11-16T22:49:20.407Z,5.95
2022-11-16T22:51:48.583Z,5.82
2022-11-16T22:54:16.762Z,4.82
2022-11-16T22:56:47.415Z,4.32
2022-11-16T22:59:15.595Z,4.13
2022-11-16T23:01:43.675Z,4.90
2022-11-16T23:04:11.762Z,4.47
2022-11-16T23:06:39.853Z,4.82
2022-11-16T23:09:07.906Z,4.53
2022-11-16T23:11:53.547Z,7.55
2022-11-16T23:14:54.659Z,3.97
2022-11-16T23:17:22.799Z,5.18
2022-11-16T23:20:10.121Z,3.72
2022-11-16T23:22:58.916Z,4.50
2022-11-16T23:25:44.639Z,2.92
2022-11-16T23:28:15.573Z,3.38
2022-11-16T23:30:45.017Z,3.80
2022-11-16T23:33:13.178Z,4.13
2022-11-16T23:35:41.292Z,3.45
2022-11-16T23:38:09.924Z,5.00
2022-11-16T23:40:40.017Z,4.80
2022-11-16T23:43:28.317Z,3.93
2022-11-16T23:45:57.752Z,3.85
2022-11-16T23:48:26.102Z,4.40
2022-11-16T23:50:54.222Z,4.22
2022-11-16T23:53:22.301Z,6.30
2022-11-16T23:55:50.422Z,3.67
2022-11-16T23:58:18.511Z,3.45
